SWA1623 KSTL-KDAL
Flight info
| Callsign | SWA1623 |
|---|---|
| Flight time | 1h 20m |
| Altitude | 38000 |
| Route | JAHNY6 MAP FSM CAMAL HIBIL3 |
| Aircraft | B737/M-SADE2E3GIJ4RWZ/LB1D1 |
Departure
| Time | 2026-05-04 21:57 |
|---|---|
| Airport | St. Louis Lambert International Airport (KSTL) |
Arrival
| Time | 2026-05-04 23:17 |
|---|---|
| Airport | Dallas Love Field (KDAL) |
| Time | Latitude | Longitude | Altitude | Speed | Heading |
|---|---|---|---|---|---|
| 2026-05-04 21:43 | 38.73834 | -90.35927 | 571 ft | 0 kts | 221° |
| 2026-05-04 21:48 | 38.73835 | -90.35926 | 571 ft | 1 kts | 221° |
| 2026-05-04 21:48 | 38.73847 | -90.35913 | 572 ft | 3 kts | 214° |
| 2026-05-04 21:48 | 38.73864 | -90.35900 | 572 ft | 3 kts | 205° |
| 2026-05-04 21:49 | 38.73878 | -90.35892 | 573 ft | 1 kts | 204° |
| 2026-05-04 21:49 | 38.73878 | -90.35891 | 572 ft | 1 kts | 204° |
| 2026-05-04 21:51 | 38.73877 | -90.35891 | 573 ft | 1 kts | 193° |
| 2026-05-04 21:51 | 38.73871 | -90.35874 | 573 ft | 5 kts | 95° |
| 2026-05-04 21:51 | 38.73892 | -90.35760 | 571 ft | 21 kts | 39° |
| 2026-05-04 21:51 | 38.74011 | -90.35663 | 573 ft | 19 kts | 33° |
| 2026-05-04 21:52 | 38.74119 | -90.35627 | 575 ft | 17 kts | 311° |
| 2026-05-04 21:52 | 38.74181 | -90.35748 | 577 ft | 16 kts | 302° |
| 2026-05-04 21:52 | 38.74245 | -90.35878 | 577 ft | 20 kts | 302° |
| 2026-05-04 21:52 | 38.74327 | -90.36044 | 575 ft | 24 kts | 303° |
| 2026-05-04 21:53 | 38.74430 | -90.36250 | 567 ft | 30 kts | 302° |
| 2026-05-04 21:53 | 38.74552 | -90.36497 | 561 ft | 35 kts | 302° |
| 2026-05-04 21:53 | 38.74690 | -90.36775 | 561 ft | 39 kts | 302° |
| 2026-05-04 21:53 | 38.74837 | -90.37072 | 557 ft | 40 kts | 302° |
| 2026-05-04 21:54 | 38.74986 | -90.37382 | 552 ft | 43 kts | 302° |
| 2026-05-04 21:54 | 38.75148 | -90.37713 | 553 ft | 45 kts | 302° |
| 2026-05-04 21:54 | 38.75287 | -90.37967 | 546 ft | 20 kts | 339° |
| 2026-05-04 21:54 | 38.75302 | -90.37968 | 546 ft | 0 kts | 9° |
| 2026-05-04 21:55 | 38.75310 | -90.37963 | 546 ft | 5 kts | 24° |
| 2026-05-04 21:55 | 38.75368 | -90.37896 | 545 ft | 17 kts | 73° |
| 2026-05-04 21:56 | 38.75296 | -90.37723 | 545 ft | 42 kts | 123° |
| 2026-05-04 21:56 | 38.75022 | -90.37165 | 560 ft | 103 kts | 122° |
| 2026-05-04 21:56 | 38.74539 | -90.36212 | 573 ft | 149 kts | 126° |
| 2026-05-04 21:56 | 38.73952 | -90.35070 | 932 ft | 161 kts | 129° |
| 2026-05-04 21:57 | 38.73284 | -90.33791 | 1234 ft | 187 kts | 127° |
| 2026-05-04 21:57 | 38.72604 | -90.32378 | 1949 ft | 184 kts | 130° |
| 2026-05-04 21:57 | 38.71886 | -90.30899 | 2414 ft | 211 kts | 130° |
| 2026-05-04 21:57 | 38.71043 | -90.29194 | 2702 ft | 241 kts | 132° |
| 2026-05-04 21:58 | 38.69749 | -90.27821 | 2988 ft | 245 kts | 169° |
| 2026-05-04 21:58 | 38.68099 | -90.27801 | 3698 ft | 239 kts | 198° |
| 2026-05-04 21:58 | 38.66496 | -90.28314 | 4657 ft | 236 kts | 199° |
| 2026-05-04 21:58 | 38.64885 | -90.28862 | 5388 ft | 243 kts | 206° |
| 2026-05-04 21:59 | 38.63898 | -90.29534 | 5869 ft | 243 kts | 219° |
| 2026-05-04 21:59 | 38.62702 | -90.31026 | 6724 ft | 242 kts | 235° |
| 2026-05-04 21:59 | 38.61765 | -90.32842 | 7531 ft | 248 kts | 240° |
| 2026-05-04 21:59 | 38.60853 | -90.34751 | 8397 ft | 253 kts | 240° |
| 2026-05-04 22:00 | 38.59930 | -90.36704 | 9239 ft | 261 kts | 240° |
| 2026-05-04 22:00 | 38.58972 | -90.38696 | 10110 ft | 264 kts | 241° |
| 2026-05-04 22:00 | 38.57979 | -90.40746 | 10600 ft | 284 kts | 241° |
| 2026-05-04 22:00 | 38.56884 | -90.43004 | 10797 ft | 311 kts | 240° |
| 2026-05-04 22:01 | 38.55700 | -90.45437 | 11115 ft | 331 kts | 240° |
| 2026-05-04 22:01 | 38.54465 | -90.47960 | 11819 ft | 337 kts | 241° |
| 2026-05-04 22:01 | 38.53212 | -90.50514 | 12662 ft | 341 kts | 241° |
| 2026-05-04 22:01 | 38.51946 | -90.53090 | 13472 ft | 345 kts | 242° |
| 2026-05-04 22:02 | 38.50663 | -90.55701 | 14233 ft | 349 kts | 241° |
| 2026-05-04 22:02 | 38.49369 | -90.58333 | 15094 ft | 351 kts | 242° |
| 2026-05-04 22:02 | 38.48068 | -90.60979 | 15953 ft | 353 kts | 242° |
| 2026-05-04 22:02 | 38.46756 | -90.63643 | 16740 ft | 357 kts | 242° |
| 2026-05-04 22:03 | 38.45424 | -90.66349 | 17480 ft | 362 kts | 242° |
| 2026-05-04 22:03 | 38.44075 | -90.69087 | 18218 ft | 366 kts | 242° |
| 2026-05-04 22:03 | 38.42716 | -90.71843 | 18898 ft | 369 kts | 242° |
| 2026-05-04 22:03 | 38.41335 | -90.74638 | 19567 ft | 373 kts | 242° |
| 2026-05-04 22:04 | 38.39946 | -90.77449 | 20202 ft | 377 kts | 242° |
| 2026-05-04 22:04 | 38.38540 | -90.80292 | 20840 ft | 381 kts | 242° |
| 2026-05-04 22:04 | 38.37139 | -90.83121 | 21470 ft | 384 kts | 242° |
| 2026-05-04 22:04 | 38.35707 | -90.86011 | 22081 ft | 388 kts | 242° |
| 2026-05-04 22:05 | 38.34262 | -90.88926 | 22711 ft | 391 kts | 242° |
| 2026-05-04 22:05 | 38.32799 | -90.91875 | 23305 ft | 395 kts | 242° |
| 2026-05-04 22:05 | 38.31325 | -90.94843 | 23803 ft | 398 kts | 242° |
| 2026-05-04 22:05 | 38.29759 | -90.97765 | 24312 ft | 404 kts | 234° |
| 2026-05-04 22:06 | 38.27646 | -91.00199 | 24809 ft | 416 kts | 221° |
| 2026-05-04 22:06 | 38.25253 | -91.02311 | 25302 ft | 420 kts | 220° |
| 2026-05-04 22:06 | 38.22817 | -91.04386 | 25738 ft | 423 kts | 219° |
| 2026-05-04 22:06 | 38.20358 | -91.06477 | 26171 ft | 427 kts | 219° |
| 2026-05-04 22:07 | 38.17889 | -91.08595 | 26604 ft | 430 kts | 220° |
| 2026-05-04 22:07 | 38.15409 | -91.10743 | 27032 ft | 432 kts | 220° |
| 2026-05-04 22:07 | 38.12946 | -91.12889 | 27442 ft | 435 kts | 220° |
| 2026-05-04 22:07 | 38.10410 | -91.15105 | 27848 ft | 438 kts | 220° |
| 2026-05-04 22:08 | 38.07923 | -91.17278 | 28243 ft | 441 kts | 220° |
| 2026-05-04 22:08 | 38.05389 | -91.19489 | 28619 ft | 444 kts | 220° |
| 2026-05-04 22:08 | 38.02841 | -91.21711 | 29006 ft | 446 kts | 221° |
| 2026-05-04 22:08 | 38.00469 | -91.24204 | 29361 ft | 441 kts | 230° |
| 2026-05-04 22:09 | 37.98334 | -91.26989 | 29804 ft | 440 kts | 232° |
| 2026-05-04 22:09 | 37.96258 | -91.29826 | 30288 ft | 437 kts | 232° |
| 2026-05-04 22:09 | 37.94205 | -91.32648 | 30780 ft | 435 kts | 232° |
| 2026-05-04 22:09 | 37.92143 | -91.35458 | 31207 ft | 434 kts | 232° |
| 2026-05-04 22:10 | 37.90071 | -91.38245 | 31587 ft | 434 kts | 232° |
| 2026-05-04 22:10 | 37.87992 | -91.41014 | 31973 ft | 434 kts | 232° |
| 2026-05-04 22:10 | 37.85907 | -91.43771 | 32388 ft | 433 kts | 232° |
| 2026-05-04 22:10 | 37.83821 | -91.46518 | 32805 ft | 432 kts | 232° |
| 2026-05-04 22:11 | 37.81740 | -91.49255 | 33204 ft | 431 kts | 232° |
| 2026-05-04 22:11 | 37.79662 | -91.51984 | 33579 ft | 430 kts | 232° |
| 2026-05-04 22:11 | 37.77613 | -91.54674 | 33940 ft | 429 kts | 233° |
| 2026-05-04 22:11 | 37.75540 | -91.57393 | 34289 ft | 427 kts | 233° |
| 2026-05-04 22:12 | 37.73479 | -91.60097 | 34619 ft | 426 kts | 234° |
| 2026-05-04 22:12 | 37.71425 | -91.62788 | 34922 ft | 426 kts | 234° |
| 2026-05-04 22:12 | 37.69373 | -91.65476 | 35232 ft | 424 kts | 234° |
| 2026-05-04 22:12 | 37.67324 | -91.68156 | 35575 ft | 422 kts | 235° |
| 2026-05-04 22:13 | 37.65284 | -91.70822 | 35897 ft | 421 kts | 235° |
| 2026-05-04 22:13 | 37.63256 | -91.73473 | 36191 ft | 420 kts | 236° |
| 2026-05-04 22:13 | 37.61233 | -91.76114 | 36498 ft | 418 kts | 236° |
| 2026-05-04 22:13 | 37.59217 | -91.78741 | 36816 ft | 416 kts | 236° |
| 2026-05-04 22:14 | 37.57161 | -91.81323 | 37122 ft | 418 kts | 234° |
| 2026-05-04 22:14 | 37.55038 | -91.83835 | 37366 ft | 419 kts | 233° |
| 2026-05-04 22:14 | 37.52919 | -91.86283 | 37597 ft | 419 kts | 233° |
| 2026-05-04 22:14 | 37.50759 | -91.88762 | 37786 ft | 420 kts | 234° |
| 2026-05-04 22:15 | 37.48593 | -91.91260 | 37759 ft | 423 kts | 234° |
| 2026-05-04 22:15 | 37.44261 | -91.96272 | 37764 ft | 421 kts | 234° |
| 2026-05-04 22:16 | 37.39976 | -92.01246 | 37766 ft | 416 kts | 234° |
| 2026-05-04 22:16 | 37.35735 | -92.06180 | 37748 ft | 414 kts | 234° |
| 2026-05-04 22:17 | 37.31519 | -92.11084 | 37753 ft | 412 kts | 234° |
| 2026-05-04 22:17 | 37.27333 | -92.15950 | 37769 ft | 416 kts | 234° |
| 2026-05-04 22:18 | 37.23046 | -92.20931 | 37767 ft | 422 kts | 234° |
| 2026-05-04 22:18 | 37.18730 | -92.25921 | 37758 ft | 422 kts | 234° |
| 2026-05-04 22:19 | 37.14409 | -92.30905 | 37777 ft | 422 kts | 234° |
| 2026-05-04 22:19 | 37.10091 | -92.35880 | 37766 ft | 421 kts | 234° |
| 2026-05-04 22:20 | 37.05783 | -92.40838 | 37770 ft | 420 kts | 234° |
| 2026-05-04 22:20 | 37.01491 | -92.45770 | 37773 ft | 418 kts | 234° |
| 2026-05-04 22:21 | 36.97206 | -92.50686 | 37785 ft | 417 kts | 234° |
| 2026-05-04 22:21 | 36.92963 | -92.55548 | 37781 ft | 416 kts | 234° |
| 2026-05-04 22:22 | 36.88695 | -92.60430 | 37780 ft | 415 kts | 234° |
| 2026-05-04 22:22 | 36.84437 | -92.65293 | 37788 ft | 414 kts | 234° |
| 2026-05-04 22:23 | 36.80179 | -92.70150 | 37783 ft | 414 kts | 234° |
| 2026-05-04 22:23 | 36.75941 | -92.74976 | 37788 ft | 414 kts | 234° |
| 2026-05-04 22:24 | 36.71679 | -92.79822 | 37781 ft | 415 kts | 235° |
| 2026-05-04 22:24 | 36.67409 | -92.84668 | 37783 ft | 415 kts | 235° |
| 2026-05-04 22:25 | 36.63144 | -92.89501 | 37801 ft | 415 kts | 235° |
| 2026-05-04 22:25 | 36.58875 | -92.94329 | 37795 ft | 414 kts | 235° |
| 2026-05-04 22:26 | 36.54612 | -92.99143 | 37802 ft | 413 kts | 235° |
| 2026-05-04 22:26 | 36.50354 | -93.03946 | 37816 ft | 413 kts | 235° |
| 2026-05-04 22:27 | 36.46096 | -93.08742 | 37807 ft | 413 kts | 235° |
| 2026-05-04 22:27 | 36.41862 | -93.13503 | 37805 ft | 413 kts | 235° |
| 2026-05-04 22:28 | 36.37597 | -93.18291 | 37831 ft | 413 kts | 235° |
| 2026-05-04 22:28 | 36.33326 | -93.23080 | 37829 ft | 414 kts | 235° |
| 2026-05-04 22:29 | 36.29051 | -93.27864 | 37829 ft | 414 kts | 235° |
| 2026-05-04 22:29 | 36.24770 | -93.32648 | 37832 ft | 414 kts | 235° |
| 2026-05-04 22:30 | 36.20483 | -93.37432 | 37817 ft | 415 kts | 235° |
| 2026-05-04 22:30 | 36.16183 | -93.42224 | 37789 ft | 416 kts | 235° |
| 2026-05-04 22:31 | 36.11904 | -93.46980 | 37803 ft | 416 kts | 235° |
| 2026-05-04 22:31 | 36.07603 | -93.51757 | 37811 ft | 416 kts | 234° |
| 2026-05-04 22:32 | 36.03294 | -93.56534 | 37792 ft | 415 kts | 234° |
| 2026-05-04 22:32 | 35.98994 | -93.61294 | 37808 ft | 415 kts | 234° |
| 2026-05-04 22:33 | 35.94689 | -93.66054 | 37800 ft | 415 kts | 234° |
| 2026-05-04 22:33 | 35.90411 | -93.70778 | 37809 ft | 415 kts | 234° |
| 2026-05-04 22:34 | 35.86102 | -93.75527 | 37800 ft | 416 kts | 234° |
| 2026-05-04 22:34 | 35.81781 | -93.80283 | 37797 ft | 417 kts | 234° |
| 2026-05-04 22:35 | 35.77484 | -93.84975 | 37754 ft | 404 kts | 238° |
| 2026-05-04 22:35 | 35.73366 | -93.89481 | 37803 ft | 394 kts | 239° |
| 2026-05-04 22:36 | 35.69259 | -93.94005 | 37799 ft | 400 kts | 239° |
| 2026-05-04 22:36 | 35.65061 | -93.98631 | 37800 ft | 408 kts | 238° |
| 2026-05-04 22:37 | 35.60802 | -94.03281 | 37795 ft | 410 kts | 238° |
| 2026-05-04 22:37 | 35.56533 | -94.07929 | 37808 ft | 410 kts | 238° |
| 2026-05-04 22:38 | 35.52265 | -94.12573 | 37806 ft | 410 kts | 238° |
| 2026-05-04 22:38 | 35.48027 | -94.17182 | 37807 ft | 409 kts | 238° |
| 2026-05-04 22:39 | 35.43772 | -94.21806 | 37804 ft | 408 kts | 238° |
| 2026-05-04 22:39 | 35.39504 | -94.26430 | 37806 ft | 409 kts | 237° |
| 2026-05-04 22:39 | 35.37203 | -94.28592 | 37808 ft | 424 kts | 231° |
| 2026-05-04 22:40 | 35.34749 | -94.30594 | 37810 ft | 425 kts | 230° |
| 2026-05-04 22:40 | 35.29815 | -94.34536 | 37806 ft | 426 kts | 230° |
| 2026-05-04 22:41 | 35.24864 | -94.38500 | 37814 ft | 425 kts | 230° |
| 2026-05-04 22:41 | 35.19928 | -94.42478 | 37808 ft | 425 kts | 230° |
| 2026-05-04 22:42 | 35.14994 | -94.46461 | 37808 ft | 425 kts | 230° |
| 2026-05-04 22:42 | 35.10048 | -94.50449 | 37805 ft | 425 kts | 230° |
| 2026-05-04 22:43 | 35.05104 | -94.54428 | 37809 ft | 425 kts | 230° |
| 2026-05-04 22:43 | 35.00193 | -94.58375 | 37792 ft | 426 kts | 230° |
| 2026-05-04 22:44 | 34.95233 | -94.62355 | 37797 ft | 426 kts | 230° |
| 2026-05-04 22:44 | 34.90308 | -94.66301 | 37792 ft | 425 kts | 229° |
| 2026-05-04 22:45 | 34.85362 | -94.70258 | 37799 ft | 425 kts | 229° |
| 2026-05-04 22:45 | 34.77954 | -94.76175 | 37810 ft | 424 kts | 229° |
| 2026-05-04 22:46 | 34.73019 | -94.80112 | 37798 ft | 424 kts | 229° |
| 2026-05-04 22:46 | 34.68258 | -94.84202 | 37818 ft | 412 kts | 234° |
| 2026-05-04 22:47 | 34.63812 | -94.88576 | 37812 ft | 411 kts | 234° |
| 2026-05-04 22:47 | 34.59391 | -94.92941 | 37815 ft | 412 kts | 234° |
| 2026-05-04 22:48 | 34.54933 | -94.97306 | 37796 ft | 412 kts | 234° |
| 2026-05-04 22:48 | 34.50473 | -95.01650 | 37823 ft | 411 kts | 234° |
| 2026-05-04 22:49 | 34.46010 | -95.05993 | 37807 ft | 412 kts | 234° |
| 2026-05-04 22:49 | 34.42260 | -95.09637 | 37804 ft | 412 kts | 234° |
| 2026-05-04 22:50 | 34.37811 | -95.13954 | 37816 ft | 413 kts | 234° |
| 2026-05-04 22:50 | 34.33326 | -95.18301 | 37818 ft | 413 kts | 234° |
| 2026-05-04 22:51 | 34.28844 | -95.22640 | 37813 ft | 412 kts | 234° |
| 2026-05-04 22:51 | 34.24395 | -95.27010 | 37625 ft | 415 kts | 234° |
| 2026-05-04 22:52 | 34.22149 | -95.29229 | 37081 ft | 416 kts | 234° |
| 2026-05-04 22:52 | 34.19909 | -95.31432 | 36453 ft | 415 kts | 234° |
| 2026-05-04 22:52 | 34.17667 | -95.33630 | 35801 ft | 414 kts | 234° |
| 2026-05-04 22:52 | 34.15429 | -95.35825 | 35098 ft | 414 kts | 234° |
| 2026-05-04 22:53 | 34.13188 | -95.38025 | 34372 ft | 416 kts | 234° |
| 2026-05-04 22:53 | 34.10936 | -95.40234 | 33549 ft | 419 kts | 233° |
| 2026-05-04 22:53 | 34.08666 | -95.42460 | 32671 ft | 421 kts | 233° |
| 2026-05-04 22:53 | 34.06417 | -95.44659 | 31867 ft | 422 kts | 232° |
| 2026-05-04 22:54 | 34.04140 | -95.46877 | 31304 ft | 417 kts | 232° |
| 2026-05-04 22:54 | 34.01892 | -95.49068 | 30705 ft | 414 kts | 232° |
| 2026-05-04 22:54 | 33.99661 | -95.51241 | 30128 ft | 410 kts | 232° |
| 2026-05-04 22:54 | 33.97435 | -95.53398 | 29301 ft | 412 kts | 231° |
| 2026-05-04 22:55 | 33.95195 | -95.55538 | 28669 ft | 407 kts | 230° |
| 2026-05-04 22:55 | 33.93004 | -95.57624 | 28039 ft | 403 kts | 230° |
| 2026-05-04 22:55 | 33.90826 | -95.59695 | 27750 ft | 391 kts | 230° |
| 2026-05-04 22:55 | 33.88713 | -95.61707 | 27158 ft | 387 kts | 230° |
| 2026-05-04 22:56 | 33.86623 | -95.63714 | 26672 ft | 382 kts | 229° |
| 2026-05-04 22:56 | 33.84551 | -95.65709 | 26102 ft | 380 kts | 229° |
| 2026-05-04 22:56 | 33.82492 | -95.67693 | 25561 ft | 377 kts | 228° |
| 2026-05-04 22:56 | 33.80445 | -95.69662 | 25018 ft | 375 kts | 228° |
| 2026-05-04 22:57 | 33.78410 | -95.71618 | 24496 ft | 373 kts | 227° |
| 2026-05-04 22:57 | 33.76387 | -95.73561 | 23938 ft | 372 kts | 226° |
| 2026-05-04 22:57 | 33.74390 | -95.75477 | 23387 ft | 371 kts | 226° |
| 2026-05-04 22:57 | 33.72375 | -95.77408 | 22756 ft | 370 kts | 226° |
| 2026-05-04 22:58 | 33.70367 | -95.79329 | 22181 ft | 367 kts | 225° |
| 2026-05-04 22:58 | 33.68380 | -95.81228 | 21625 ft | 363 kts | 225° |
| 2026-05-04 22:58 | 33.66413 | -95.83108 | 21088 ft | 360 kts | 225° |
| 2026-05-04 22:58 | 33.64457 | -95.84977 | 20547 ft | 358 kts | 225° |
| 2026-05-04 22:59 | 33.62511 | -95.86835 | 20023 ft | 355 kts | 225° |
| 2026-05-04 22:59 | 33.60588 | -95.88671 | 19493 ft | 353 kts | 225° |
| 2026-05-04 22:59 | 33.58669 | -95.90501 | 18966 ft | 350 kts | 225° |
| 2026-05-04 22:59 | 33.56791 | -95.92292 | 18459 ft | 349 kts | 225° |
| 2026-05-04 23:00 | 33.54897 | -95.94098 | 17891 ft | 347 kts | 224° |
| 2026-05-04 23:00 | 33.53009 | -95.95901 | 17293 ft | 347 kts | 221° |
| 2026-05-04 23:00 | 33.51123 | -95.97695 | 16743 ft | 345 kts | 221° |
| 2026-05-04 23:00 | 33.49238 | -95.99486 | 16203 ft | 344 kts | 221° |
| 2026-05-04 23:01 | 33.47376 | -96.01255 | 15787 ft | 339 kts | 221° |
| 2026-05-04 23:01 | 33.45532 | -96.03007 | 15140 ft | 341 kts | 220° |
| 2026-05-04 23:01 | 33.43670 | -96.04781 | 14555 ft | 342 kts | 220° |
| 2026-05-04 23:01 | 33.41810 | -96.06551 | 14021 ft | 341 kts | 220° |
| 2026-05-04 23:02 | 33.39951 | -96.08320 | 13464 ft | 340 kts | 219° |
| 2026-05-04 23:02 | 33.38105 | -96.10074 | 12893 ft | 337 kts | 219° |
| 2026-05-04 23:02 | 33.36296 | -96.11792 | 12360 ft | 335 kts | 219° |
| 2026-05-04 23:02 | 33.34478 | -96.13527 | 11834 ft | 332 kts | 221° |
| 2026-05-04 23:03 | 33.32916 | -96.15528 | 11300 ft | 328 kts | 234° |
| 2026-05-04 23:03 | 33.31774 | -96.17867 | 10794 ft | 325 kts | 246° |
| 2026-05-04 23:03 | 33.30903 | -96.20332 | 10437 ft | 317 kts | 248° |
| 2026-05-04 23:03 | 33.30085 | -96.22719 | 10295 ft | 303 kts | 248° |
| 2026-05-04 23:04 | 33.29296 | -96.24998 | 10148 ft | 291 kts | 247° |
| 2026-05-04 23:04 | 33.28530 | -96.27178 | 10017 ft | 279 kts | 248° |
| 2026-05-04 23:04 | 33.27777 | -96.29300 | 9671 ft | 277 kts | 247° |
| 2026-05-04 23:04 | 33.27024 | -96.31416 | 9289 ft | 275 kts | 247° |
| 2026-05-04 23:05 | 33.26247 | -96.33491 | 8960 ft | 272 kts | 240° |
| 2026-05-04 23:05 | 33.25203 | -96.35311 | 8741 ft | 268 kts | 232° |
| 2026-05-04 23:05 | 33.24041 | -96.37047 | 8536 ft | 267 kts | 231° |
| 2026-05-04 23:05 | 33.22870 | -96.38774 | 8319 ft | 267 kts | 231° |
| 2026-05-04 23:06 | 33.21713 | -96.40506 | 8101 ft | 265 kts | 231° |
| 2026-05-04 23:06 | 33.20576 | -96.42235 | 7902 ft | 265 kts | 231° |
| 2026-05-04 23:06 | 33.19446 | -96.43966 | 7683 ft | 263 kts | 231° |
| 2026-05-04 23:06 | 33.18326 | -96.45681 | 7476 ft | 262 kts | 231° |
| 2026-05-04 23:07 | 33.17226 | -96.47406 | 7257 ft | 259 kts | 233° |
| 2026-05-04 23:07 | 33.16189 | -96.49160 | 7057 ft | 258 kts | 234° |
| 2026-05-04 23:07 | 33.15169 | -96.50917 | 6853 ft | 256 kts | 234° |
| 2026-05-04 23:07 | 33.14157 | -96.52660 | 6653 ft | 255 kts | 234° |
| 2026-05-04 23:08 | 33.13144 | -96.54398 | 6442 ft | 253 kts | 234° |
| 2026-05-04 23:08 | 33.12153 | -96.56089 | 6242 ft | 250 kts | 233° |
| 2026-05-04 23:08 | 33.11163 | -96.57776 | 6048 ft | 247 kts | 233° |
| 2026-05-04 23:08 | 33.10177 | -96.59454 | 5820 ft | 246 kts | 233° |
| 2026-05-04 23:09 | 33.09199 | -96.61119 | 5647 ft | 244 kts | 234° |
| 2026-05-04 23:09 | 33.08240 | -96.62749 | 5440 ft | 245 kts | 233° |
| 2026-05-04 23:09 | 33.07396 | -96.64182 | 5283 ft | 246 kts | 233° |
| 2026-05-04 23:09 | 33.06408 | -96.65858 | 5082 ft | 248 kts | 233° |
| 2026-05-04 23:10 | 33.05427 | -96.67523 | 4948 ft | 238 kts | 233° |
| 2026-05-04 23:10 | 33.04509 | -96.69084 | 4839 ft | 223 kts | 233° |
| 2026-05-04 23:10 | 33.03646 | -96.70548 | 4704 ft | 209 kts | 233° |
| 2026-05-04 23:10 | 33.02835 | -96.71922 | 4599 ft | 196 kts | 232° |
| 2026-05-04 23:11 | 33.02077 | -96.73207 | 4491 ft | 184 kts | 233° |
| 2026-05-04 23:11 | 33.01348 | -96.74441 | 4158 ft | 183 kts | 231° |
| 2026-05-04 23:11 | 33.00628 | -96.75658 | 3946 ft | 178 kts | 232° |
| 2026-05-04 23:11 | 32.99945 | -96.76816 | 3810 ft | 169 kts | 232° |
| 2026-05-04 23:12 | 32.99264 | -96.77967 | 3667 ft | 170 kts | 231° |
| 2026-05-04 23:12 | 32.98580 | -96.79118 | 3542 ft | 169 kts | 232° |
| 2026-05-04 23:12 | 32.97913 | -96.80247 | 3380 ft | 163 kts | 231° |
| 2026-05-04 23:12 | 32.97278 | -96.81325 | 3229 ft | 156 kts | 231° |
| 2026-05-04 23:13 | 32.96673 | -96.82350 | 3130 ft | 149 kts | 230° |
| 2026-05-04 23:13 | 32.96057 | -96.83384 | 3030 ft | 156 kts | 230° |
| 2026-05-04 23:13 | 32.95367 | -96.84386 | 2831 ft | 154 kts | 226° |
| 2026-05-04 23:13 | 32.94683 | -96.85322 | 2633 ft | 146 kts | 226° |
| 2026-05-04 23:14 | 32.94041 | -96.86198 | 2515 ft | 136 kts | 225° |
| 2026-05-04 23:14 | 32.93446 | -96.87016 | 2349 ft | 127 kts | 225° |
| 2026-05-04 23:14 | 32.92866 | -96.87810 | 2170 ft | 127 kts | 225° |
| 2026-05-04 23:14 | 32.92265 | -96.88549 | 2058 ft | 125 kts | 221° |
| 2026-05-04 23:15 | 32.91592 | -96.89229 | 1869 ft | 129 kts | 207° |
| 2026-05-04 23:15 | 32.90745 | -96.89525 | 1746 ft | 125 kts | 186° |
| 2026-05-04 23:15 | 32.89897 | -96.89450 | 1595 ft | 123 kts | 168° |
| 2026-05-04 23:15 | 32.89071 | -96.89095 | 1370 ft | 132 kts | 156° |
| 2026-05-04 23:16 | 32.88283 | -96.88530 | 1288 ft | 133 kts | 149° |
| 2026-05-04 23:16 | 32.87571 | -96.87801 | 1090 ft | 135 kts | 142° |
| 2026-05-04 23:16 | 32.86910 | -96.87042 | 923 ft | 129 kts | 140° |
| 2026-05-04 23:16 | 32.86264 | -96.86298 | 674 ft | 128 kts | 141° |
| 2026-05-04 23:17 | 32.85618 | -96.85555 | 503 ft | 127 kts | 140° |
| 2026-05-04 23:17 | 32.85060 | -96.84909 | 481 ft | 78 kts | 135° |
| 2026-05-04 23:17 | 32.84874 | -96.84697 | 481 ft | 22 kts | 136° |
| 2026-05-04 23:17 | 32.84767 | -96.84591 | 475 ft | 9 kts | 180° |
| 2026-05-04 23:18 | 32.84731 | -96.84624 | 481 ft | 5 kts | 220° |
| 2026-05-04 23:18 | 32.84702 | -96.84647 | 478 ft | 5 kts | 189° |
| 2026-05-04 23:18 | 32.84651 | -96.84612 | 481 ft | 15 kts | 137° |
| 2026-05-04 23:18 | 32.84573 | -96.84630 | 477 ft | 13 kts | 233° |
| 2026-05-04 23:19 | 32.84520 | -96.84711 | 480 ft | 12 kts | 236° |
| 2026-05-04 23:19 | 32.84511 | -96.84807 | 481 ft | 11 kts | 271° |
| 2026-05-04 23:19 | 32.84522 | -96.84868 | 475 ft | 4 kts | 326° |
| 2026-05-04 23:19 | 32.84552 | -96.84874 | 476 ft | 4 kts | 359° |
| 2026-05-04 23:20 | 32.84561 | -96.84874 | 476 ft | 0 kts | 0° |